sensor_id;sensor_type;location;lat;lon;timestamp;P1;durP1;ratioP1;P2;durP2;ratioP2
62574;SDS011;53112;45.602;11.904;2023-04-24T00:00:10;6.07;;;4.25;;
62574;SDS011;53112;45.602;11.904;2023-04-24T00:02:41;5.45;;;4.25;;
62574;SDS011;53112;45.602;11.904;2023-04-24T00:05:12;5.27;;;4.20;;
62574;SDS011;53112;45.602;11.904;2023-04-24T00:07:39;5.35;;;4.00;;
62574;SDS011;53112;45.602;11.904;2023-04-24T00:10:06;5.00;;;3.83;;
62574;SDS011;53112;45.602;11.904;2023-04-24T00:12:33;5.55;;;4.05;;
62574;SDS011;53112;45.602;11.904;2023-04-24T00:14:59;5.43;;;4.03;;
62574;SDS011;53112;45.602;11.904;2023-04-24T00:17:25;4.97;;;3.90;;
62574;SDS011;53112;45.602;11.904;2023-04-24T00:19:52;5.70;;;4.30;;
62574;SDS011;53112;45.602;11.904;2023-04-24T00:22:26;5.38;;;3.75;;
62574;SDS011;53112;45.602;11.904;2023-04-24T00:24:53;5.13;;;3.97;;
62574;SDS011;53112;45.602;11.904;2023-04-24T00:27:20;5.25;;;3.95;;
62574;SDS011;53112;45.602;11.904;2023-04-24T00:29:46;6.03;;;3.80;;
62574;SDS011;53112;45.602;11.904;2023-04-24T00:32:12;5.40;;;3.92;;
62574;SDS011;53112;45.602;11.904;2023-04-24T00:34:39;5.35;;;3.72;;
62574;SDS011;53112;45.602;11.904;2023-04-24T00:37:05;5.50;;;4.18;;
62574;SDS011;53112;45.602;11.904;2023-04-24T00:39:37;5.50;;;3.78;;
62574;SDS011;53112;45.602;11.904;2023-04-24T00:42:03;5.28;;;3.90;;
62574;SDS011;53112;45.602;11.904;2023-04-24T00:44:32;5.20;;;4.00;;
62574;SDS011;53112;45.602;11.904;2023-04-24T00:46:59;5.93;;;4.07;;
62574;SDS011;53112;45.602;11.904;2023-04-24T00:49:26;5.43;;;3.80;;
62574;SDS011;53112;45.602;11.904;2023-04-24T00:51:52;4.88;;;3.63;;
62574;SDS011;53112;45.602;11.904;2023-04-24T00:54:19;5.07;;;3.70;;
62574;SDS011;53112;45.602;11.904;2023-04-24T00:56:45;5.40;;;3.85;;
62574;SDS011;53112;45.602;11.904;2023-04-24T00:59:12;5.60;;;3.83;;
62574;SDS011;53112;45.602;11.904;2023-04-24T01:01:39;4.93;;;3.92;;
62574;SDS011;53112;45.602;11.904;2023-04-24T01:04:11;5.63;;;4.00;;
62574;SDS011;53112;45.602;11.904;2023-04-24T01:06:40;5.50;;;4.20;;
62574;SDS011;53112;45.602;11.904;2023-04-24T01:09:08;6.03;;;4.03;;
62574;SDS011;53112;45.602;11.904;2023-04-24T01:11:36;5.18;;;3.90;;
62574;SDS011;53112;45.602;11.904;2023-04-24T01:14:02;4.88;;;3.80;;
62574;SDS011;53112;45.602;11.904;2023-04-24T01:16:29;4.70;;;3.90;;
62574;SDS011;53112;45.602;11.904;2023-04-24T01:18:55;5.80;;;4.10;;
62574;SDS011;53112;45.602;11.904;2023-04-24T01:21:21;5.20;;;3.92;;
62574;SDS011;53112;45.602;11.904;2023-04-24T01:23:48;5.65;;;3.97;;
62574;SDS011;53112;45.602;11.904;2023-04-24T01:26:16;6.80;;;4.18;;
62574;SDS011;53112;45.602;11.904;2023-04-24T01:28:45;6.55;;;4.15;;
62574;SDS011;53112;45.602;11.904;2023-04-24T01:31:12;5.38;;;4.05;;
62574;SDS011;53112;45.602;11.904;2023-04-24T01:33:38;6.03;;;4.07;;
62574;SDS011;53112;45.602;11.904;2023-04-24T01:36:06;6.22;;;4.15;;
62574;SDS011;53112;45.602;11.904;2023-04-24T01:38:32;5.60;;;4.18;;
62574;SDS011;53112;45.602;11.904;2023-04-24T01:40:58;6.05;;;4.15;;
62574;SDS011;53112;45.602;11.904;2023-04-24T01:43:25;5.88;;;4.22;;
62574;SDS011;53112;45.602;11.904;2023-04-24T01:45:51;5.25;;;4.07;;
62574;SDS011;53112;45.602;11.904;2023-04-24T01:48:17;5.53;;;3.90;;
62574;SDS011;53112;45.602;11.904;2023-04-24T01:50:43;5.82;;;4.28;;
62574;SDS011;53112;45.602;11.904;2023-04-24T01:53:09;5.75;;;4.15;;
62574;SDS011;53112;45.602;11.904;2023-04-24T01:55:35;5.65;;;4.00;;
62574;SDS011;53112;45.602;11.904;2023-04-24T01:58:01;5.50;;;3.90;;
62574;SDS011;53112;45.602;11.904;2023-04-24T02:00:27;5.55;;;4.13;;
62574;SDS011;53112;45.602;11.904;2023-04-24T02:02:53;5.72;;;4.20;;
62574;SDS011;53112;45.602;11.904;2023-04-24T02:05:19;5.07;;;3.83;;
62574;SDS011;53112;45.602;11.904;2023-04-24T02:07:45;5.80;;;4.20;;
62574;SDS011;53112;45.602;11.904;2023-04-24T02:10:11;5.43;;;4.10;;
62574;SDS011;53112;45.602;11.904;2023-04-24T02:12:37;6.05;;;4.18;;
62574;SDS011;53112;45.602;11.904;2023-04-24T02:15:03;4.38;;;3.78;;
62574;SDS011;53112;45.602;11.904;2023-04-24T02:17:30;5.03;;;3.95;;
62574;SDS011;53112;45.602;11.904;2023-04-24T02:19:56;6.30;;;3.78;;
62574;SDS011;53112;45.602;11.904;2023-04-24T02:22:22;5.53;;;3.78;;
62574;SDS011;53112;45.602;11.904;2023-04-24T02:24:48;6.05;;;4.03;;
62574;SDS011;53112;45.602;11.904;2023-04-24T02:27:15;5.35;;;4.03;;
62574;SDS011;53112;45.602;11.904;2023-04-24T02:29:41;5.40;;;4.00;;
62574;SDS011;53112;45.602;11.904;2023-04-24T02:32:07;4.93;;;3.75;;
62574;SDS011;53112;45.602;11.904;2023-04-24T02:34:37;5.68;;;3.97;;
62574;SDS011;53112;45.602;11.904;2023-04-24T02:37:03;4.80;;;3.80;;
62574;SDS011;53112;45.602;11.904;2023-04-24T02:39:29;5.28;;;4.03;;
62574;SDS011;53112;45.602;11.904;2023-04-24T02:41:55;5.15;;;3.90;;
62574;SDS011;53112;45.602;11.904;2023-04-24T02:44:21;4.78;;;3.78;;
62574;SDS011;53112;45.602;11.904;2023-04-24T02:46:47;5.30;;;3.78;;
62574;SDS011;53112;45.602;11.904;2023-04-24T02:49:13;5.63;;;4.00;;
62574;SDS011;53112;45.602;11.904;2023-04-24T02:51:39;5.63;;;3.92;;
62574;SDS011;53112;45.602;11.904;2023-04-24T02:54:09;5.18;;;3.70;;
62574;SDS011;53112;45.602;11.904;2023-04-24T02:56:35;5.30;;;4.10;;
62574;SDS011;53112;45.602;11.904;2023-04-24T02:59:01;5.45;;;3.58;;
62574;SDS011;53112;45.602;11.904;2023-04-24T03:01:28;5.35;;;4.00;;
62574;SDS011;53112;45.602;11.904;2023-04-24T03:03:54;5.00;;;3.88;;
62574;SDS011;53112;45.602;11.904;2023-04-24T03:06:20;4.82;;;3.90;;
62574;SDS011;53112;45.602;11.904;2023-04-24T03:08:46;5.30;;;4.03;;
62574;SDS011;53112;45.602;11.904;2023-04-24T03:11:12;4.80;;;3.70;;
62574;SDS011;53112;45.602;11.904;2023-04-24T03:13:38;5.75;;;4.07;;
62574;SDS011;53112;45.602;11.904;2023-04-24T03:16:04;5.43;;;3.80;;
62574;SDS011;53112;45.602;11.904;2023-04-24T03:18:30;5.25;;;3.83;;
62574;SDS011;53112;45.602;11.904;2023-04-24T03:20:56;5.03;;;3.80;;
62574;SDS011;53112;45.602;11.904;2023-04-24T03:23:22;6.05;;;4.13;;
62574;SDS011;53112;45.602;11.904;2023-04-24T03:25:49;5.07;;;3.88;;
62574;SDS011;53112;45.602;11.904;2023-04-24T03:28:15;5.07;;;3.90;;
62574;SDS011;53112;45.602;11.904;2023-04-24T03:30:41;5.35;;;3.97;;
62574;SDS011;53112;45.602;11.904;2023-04-24T03:33:07;4.55;;;3.80;;
62574;SDS011;53112;45.602;11.904;2023-04-24T03:35:33;6.13;;;3.90;;
62574;SDS011;53112;45.602;11.904;2023-04-24T03:37:59;5.00;;;3.78;;
62574;SDS011;53112;45.602;11.904;2023-04-24T03:40:25;5.32;;;3.63;;
62574;SDS011;53112;45.602;11.904;2023-04-24T03:42:51;5.28;;;3.97;;
62574;SDS011;53112;45.602;11.904;2023-04-24T03:45:17;5.10;;;3.60;;
62574;SDS011;53112;45.602;11.904;2023-04-24T03:47:42;4.72;;;3.60;;
62574;SDS011;53112;45.602;11.904;2023-04-24T03:50:09;5.57;;;4.13;;
62574;SDS011;53112;45.602;11.904;2023-04-24T03:52:35;5.07;;;3.60;;
62574;SDS011;53112;45.602;11.904;2023-04-24T03:55:01;4.60;;;3.60;;
62574;SDS011;53112;45.602;11.904;2023-04-24T03:57:27;5.28;;;3.80;;
62574;SDS011;53112;45.602;11.904;2023-04-24T03:59:53;5.00;;;3.90;;
62574;SDS011;53112;45.602;11.904;2023-04-24T04:02:19;4.63;;;3.42;;
62574;SDS011;53112;45.602;11.904;2023-04-24T04:04:45;4.68;;;3.72;;
62574;SDS011;53112;45.602;11.904;2023-04-24T04:07:11;5.80;;;3.92;;
62574;SDS011;53112;45.602;11.904;2023-04-24T04:09:38;4.80;;;3.65;;
62574;SDS011;53112;45.602;11.904;2023-04-24T04:12:04;5.47;;;3.70;;
62574;SDS011;53112;45.602;11.904;2023-04-24T04:14:30;4.25;;;3.35;;
62574;SDS011;53112;45.602;11.904;2023-04-24T04:16:56;4.50;;;3.60;;
62574;SDS011;53112;45.602;11.904;2023-04-24T04:19:22;5.55;;;3.75;;
62574;SDS011;53112;45.602;11.904;2023-04-24T04:21:48;5.35;;;4.28;;
62574;SDS011;53112;45.602;11.904;2023-04-24T04:24:18;4.60;;;3.80;;
62574;SDS011;53112;45.602;11.904;2023-04-24T04:26:46;4.57;;;3.58;;
62574;SDS011;53112;45.602;11.904;2023-04-24T04:29:12;4.32;;;3.42;;
62574;SDS011;53112;45.602;11.904;2023-04-24T04:31:39;4.43;;;3.53;;
62574;SDS011;53112;45.602;11.904;2023-04-24T04:34:06;4.90;;;3.60;;
62574;SDS011;53112;45.602;11.904;2023-04-24T04:36:32;4.85;;;3.63;;
62574;SDS011;53112;45.602;11.904;2023-04-24T04:39:02;5.10;;;3.75;;
62574;SDS011;53112;45.602;11.904;2023-04-24T04:41:29;4.72;;;3.55;;
62574;SDS011;53112;45.602;11.904;2023-04-24T04:43:55;6.03;;;3.85;;
62574;SDS011;53112;45.602;11.904;2023-04-24T04:46:23;4.55;;;3.65;;
62574;SDS011;53112;45.602;11.904;2023-04-24T04:48:52;4.57;;;3.40;;
62574;SDS011;53112;45.602;11.904;2023-04-24T04:51:21;5.80;;;3.70;;
62574;SDS011;53112;45.602;11.904;2023-04-24T04:53:47;4.50;;;3.60;;
62574;SDS011;53112;45.602;11.904;2023-04-24T04:56:13;5.07;;;3.83;;
62574;SDS011;53112;45.602;11.904;2023-04-24T04:58:39;4.50;;;3.50;;
62574;SDS011;53112;45.602;11.904;2023-04-24T05:01:05;5.28;;;3.83;;
62574;SDS011;53112;45.602;11.904;2023-04-24T05:03:32;5.75;;;3.95;;
62574;SDS011;53112;45.602;11.904;2023-04-24T05:05:58;4.40;;;3.50;;
62574;SDS011;53112;45.602;11.904;2023-04-24T05:08:24;4.68;;;3.35;;
62574;SDS011;53112;45.602;11.904;2023-04-24T05:10:50;4.20;;;3.40;;
62574;SDS011;53112;45.602;11.904;2023-04-24T05:13:15;4.28;;;3.40;;
62574;SDS011;53112;45.602;11.904;2023-04-24T05:15:41;4.45;;;3.42;;
62574;SDS011;53112;45.602;11.904;2023-04-24T05:18:07;5.28;;;3.30;;
62574;SDS011;53112;45.602;11.904;2023-04-24T05:20:33;4.47;;;3.60;;
62574;SDS011;53112;45.602;11.904;2023-04-24T05:22:59;4.00;;;3.38;;
62574;SDS011;53112;45.602;11.904;2023-04-24T05:25:25;5.28;;;3.47;;
62574;SDS011;53112;45.602;11.904;2023-04-24T05:27:51;6.18;;;3.60;;
62574;SDS011;53112;45.602;11.904;2023-04-24T05:30:18;6.57;;;3.78;;
62574;SDS011;53112;45.602;11.904;2023-04-24T05:32:45;5.30;;;3.90;;
62574;SDS011;53112;45.602;11.904;2023-04-24T05:35:11;5.90;;;3.67;;
62574;SDS011;53112;45.602;11.904;2023-04-24T05:37:37;5.80;;;3.85;;
62574;SDS011;53112;45.602;11.904;2023-04-24T05:40:03;5.35;;;3.45;;
62574;SDS011;53112;45.602;11.904;2023-04-24T05:42:30;5.65;;;3.72;;
62574;SDS011;53112;45.602;11.904;2023-04-24T05:44:57;5.20;;;4.03;;
62574;SDS011;53112;45.602;11.904;2023-04-24T05:47:23;7.72;;;3.65;;
62574;SDS011;53112;45.602;11.904;2023-04-24T05:49:49;4.97;;;3.60;;
62574;SDS011;53112;45.602;11.904;2023-04-24T05:52:15;5.72;;;3.95;;
62574;SDS011;53112;45.602;11.904;2023-04-24T05:54:41;6.68;;;3.65;;
62574;SDS011;53112;45.602;11.904;2023-04-24T05:57:06;4.68;;;3.80;;
62574;SDS011;53112;45.602;11.904;2023-04-24T05:59:36;6.60;;;3.90;;
62574;SDS011;53112;45.602;11.904;2023-04-24T06:02:05;5.95;;;3.90;;
62574;SDS011;53112;45.602;11.904;2023-04-24T06:04:32;5.30;;;3.78;;
62574;SDS011;53112;45.602;11.904;2023-04-24T06:06:58;8.52;;;3.85;;
62574;SDS011;53112;45.602;11.904;2023-04-24T06:09:25;4.90;;;3.50;;
62574;SDS011;53112;45.602;11.904;2023-04-24T06:11:51;9.85;;;7.72;;
62574;SDS011;53112;45.602;11.904;2023-04-24T06:14:18;8.15;;;6.38;;
62574;SDS011;53112;45.602;11.904;2023-04-24T06:16:45;9.23;;;5.25;;
62574;SDS011;53112;45.602;11.904;2023-04-24T06:19:11;6.40;;;4.60;;
62574;SDS011;53112;45.602;11.904;2023-04-24T06:21:37;6.38;;;4.35;;
62574;SDS011;53112;45.602;11.904;2023-04-24T06:24:03;5.72;;;4.10;;
62574;SDS011;53112;45.602;11.904;2023-04-24T06:26:29;6.18;;;3.92;;
62574;SDS011;53112;45.602;11.904;2023-04-24T06:28:55;6.78;;;4.03;;
62574;SDS011;53112;45.602;11.904;2023-04-24T06:31:23;5.75;;;3.83;;
62574;SDS011;53112;45.602;11.904;2023-04-24T06:33:49;6.18;;;4.05;;
62574;SDS011;53112;45.602;11.904;2023-04-24T06:36:15;7.22;;;3.70;;
62574;SDS011;53112;45.602;11.904;2023-04-24T06:38:41;5.25;;;3.75;;
62574;SDS011;53112;45.602;11.904;2023-04-24T06:41:07;5.07;;;3.70;;
62574;SDS011;53112;45.602;11.904;2023-04-24T06:43:33;5.00;;;3.78;;
62574;SDS011;53112;45.602;11.904;2023-04-24T06:45:59;5.10;;;3.63;;
62574;SDS011;53112;45.602;11.904;2023-04-24T06:48:25;5.60;;;3.80;;
62574;SDS011;53112;45.602;11.904;2023-04-24T06:50:51;6.43;;;3.60;;
62574;SDS011;53112;45.602;11.904;2023-04-24T06:53:17;5.63;;;3.80;;
62574;SDS011;53112;45.602;11.904;2023-04-24T06:55:43;5.25;;;3.60;;
62574;SDS011;53112;45.602;11.904;2023-04-24T06:58:12;5.80;;;3.67;;
62574;SDS011;53112;45.602;11.904;2023-04-24T07:00:39;6.43;;;3.55;;
62574;SDS011;53112;45.602;11.904;2023-04-24T07:03:05;5.03;;;3.60;;
62574;SDS011;53112;45.602;11.904;2023-04-24T07:05:31;5.07;;;3.60;;
62574;SDS011;53112;45.602;11.904;2023-04-24T07:07:59;4.95;;;3.63;;
62574;SDS011;53112;45.602;11.904;2023-04-24T07:10:25;4.97;;;3.58;;
62574;SDS011;53112;45.602;11.904;2023-04-24T07:12:54;5.72;;;3.60;;
62574;SDS011;53112;45.602;11.904;2023-04-24T07:15:22;5.50;;;3.90;;
62574;SDS011;53112;45.602;11.904;2023-04-24T07:17:48;5.57;;;3.60;;
62574;SDS011;53112;45.602;11.904;2023-04-24T07:20:15;4.82;;;3.58;;
62574;SDS011;53112;45.602;11.904;2023-04-24T07:22:41;5.78;;;4.10;;
62574;SDS011;53112;45.602;11.904;2023-04-24T07:25:07;6.38;;;3.80;;
62574;SDS011;53112;45.602;11.904;2023-04-24T07:27:34;6.20;;;3.80;;
62574;SDS011;53112;45.602;11.904;2023-04-24T07:30:02;5.25;;;3.55;;
62574;SDS011;53112;45.602;11.904;2023-04-24T07:32:29;6.25;;;3.53;;
62574;SDS011;53112;45.602;11.904;2023-04-24T07:34:55;6.03;;;3.60;;
62574;SDS011;53112;45.602;11.904;2023-04-24T07:37:21;5.65;;;3.60;;
62574;SDS011;53112;45.602;11.904;2023-04-24T07:39:48;5.07;;;3.33;;
62574;SDS011;53112;45.602;11.904;2023-04-24T07:42:15;4.75;;;3.28;;
62574;SDS011;53112;45.602;11.904;2023-04-24T07:44:41;5.25;;;3.30;;
62574;SDS011;53112;45.602;11.904;2023-04-24T07:47:07;5.38;;;3.50;;
62574;SDS011;53112;45.602;11.904;2023-04-24T07:49:33;5.43;;;3.10;;
62574;SDS011;53112;45.602;11.904;2023-04-24T07:52:00;4.88;;;3.10;;
62574;SDS011;53112;45.602;11.904;2023-04-24T07:54:28;4.97;;;3.10;;
62574;SDS011;53112;45.602;11.904;2023-04-24T07:56:54;4.15;;;3.10;;
62574;SDS011;53112;45.602;11.904;2023-04-24T07:59:20;3.90;;;2.95;;
62574;SDS011;53112;45.602;11.904;2023-04-24T08:01:46;3.90;;;2.67;;
62574;SDS011;53112;45.602;11.904;2023-04-24T08:04:12;3.28;;;2.60;;
62574;SDS011;53112;45.602;11.904;2023-04-24T08:06:38;4.50;;;2.70;;
62574;SDS011;53112;45.602;11.904;2023-04-24T08:09:04;3.92;;;2.70;;
62574;SDS011;53112;45.602;11.904;2023-04-24T08:11:30;3.40;;;2.80;;
62574;SDS011;53112;45.602;11.904;2023-04-24T08:13:57;3.75;;;2.60;;
62574;SDS011;53112;45.602;11.904;2023-04-24T08:16:22;4.38;;;2.60;;
62574;SDS011;53112;45.602;11.904;2023-04-24T08:18:49;4.20;;;2.70;;
62574;SDS011;53112;45.602;11.904;2023-04-24T08:21:15;3.58;;;2.78;;
62574;SDS011;53112;45.602;11.904;2023-04-24T08:23:44;3.10;;;2.60;;
62574;SDS011;53112;45.602;11.904;2023-04-24T08:26:11;3.55;;;2.63;;
62574;SDS011;53112;45.602;11.904;2023-04-24T08:28:37;3.30;;;2.50;;
62574;SDS011;53112;45.602;11.904;2023-04-24T08:31:03;3.72;;;2.60;;
62574;SDS011;53112;45.602;11.904;2023-04-24T08:33:30;3.60;;;2.70;;
62574;SDS011;53112;45.602;11.904;2023-04-24T08:36:05;3.78;;;2.53;;
62574;SDS011;53112;45.602;11.904;2023-04-24T08:38:31;5.07;;;2.40;;
62574;SDS011;53112;45.602;11.904;2023-04-24T08:40:58;3.03;;;2.30;;
62574;SDS011;53112;45.602;11.904;2023-04-24T08:43:25;2.80;;;2.28;;
62574;SDS011;53112;45.602;11.904;2023-04-24T08:45:51;3.25;;;2.28;;
62574;SDS011;53112;45.602;11.904;2023-04-24T08:48:18;2.20;;;2.00;;
62574;SDS011;53112;45.602;11.904;2023-04-24T08:50:44;3.53;;;2.22;;
62574;SDS011;53112;45.602;11.904;2023-04-24T08:53:10;4.20;;;2.30;;
62574;SDS011;53112;45.602;11.904;2023-04-24T08:55:39;3.20;;;2.20;;
62574;SDS011;53112;45.602;11.904;2023-04-24T08:58:08;2.85;;;2.17;;
62574;SDS011;53112;45.602;11.904;2023-04-24T09:00:35;3.30;;;2.38;;
62574;SDS011;53112;45.602;11.904;2023-04-24T09:03:03;2.85;;;2.20;;
62574;SDS011;53112;45.602;11.904;2023-04-24T09:05:31;2.70;;;2.17;;
62574;SDS011;53112;45.602;11.904;2023-04-24T09:07:58;2.63;;;2.13;;
62574;SDS011;53112;45.602;11.904;2023-04-24T09:10:27;2.95;;;2.40;;
62574;SDS011;53112;45.602;11.904;2023-04-24T09:12:56;2.58;;;2.20;;
62574;SDS011;53112;45.602;11.904;2023-04-24T09:15:24;2.38;;;2.10;;
62574;SDS011;53112;45.602;11.904;2023-04-24T09:17:50;2.83;;;2.30;;
62574;SDS011;53112;45.602;11.904;2023-04-24T09:20:16;4.10;;;2.30;;
62574;SDS011;53112;45.602;11.904;2023-04-24T09:22:42;2.10;;;1.90;;
62574;SDS011;53112;45.602;11.904;2023-04-24T09:25:10;2.55;;;2.13;;
62574;SDS011;53112;45.602;11.904;2023-04-24T09:27:41;2.92;;;2.20;;
62574;SDS011;53112;45.602;11.904;2023-04-24T09:30:09;3.05;;;2.15;;
62574;SDS011;53112;45.602;11.904;2023-04-24T09:32:35;2.33;;;2.03;;
62574;SDS011;53112;45.602;11.904;2023-04-24T09:35:08;3.03;;;2.25;;
62574;SDS011;53112;45.602;11.904;2023-04-24T09:37:41;4.05;;;2.33;;
62574;SDS011;53112;45.602;11.904;2023-04-24T09:40:13;2.80;;;2.00;;
62574;SDS011;53112;45.602;11.904;2023-04-24T09:45:16;3.40;;;2.10;;
62574;SDS011;53112;45.602;11.904;2023-04-24T09:47:43;2.53;;;2.00;;
62574;SDS011;53112;45.602;11.904;2023-04-24T09:50:13;2.25;;;2.00;;
62574;SDS011;53112;45.602;11.904;2023-04-24T09:52:43;3.05;;;1.92;;
62574;SDS011;53112;45.602;11.904;2023-04-24T09:55:21;2.25;;;2.00;;
62574;SDS011;53112;45.602;11.904;2023-04-24T09:57:50;2.50;;;2.28;;
62574;SDS011;53112;45.602;11.904;2023-04-24T10:00:18;2.77;;;1.97;;
62574;SDS011;53112;45.602;11.904;2023-04-24T10:02:50;3.53;;;2.00;;
62574;SDS011;53112;45.602;11.904;2023-04-24T10:05:22;3.25;;;2.30;;
62574;SDS011;53112;45.602;11.904;2023-04-24T10:07:55;2.53;;;1.92;;
62574;SDS011;53112;45.602;11.904;2023-04-24T10:10:22;3.67;;;1.90;;
62574;SDS011;53112;45.602;11.904;2023-04-24T10:12:48;3.58;;;2.45;;
62574;SDS011;53112;45.602;11.904;2023-04-24T10:15:16;2.85;;;2.20;;
62574;SDS011;53112;45.602;11.904;2023-04-24T10:17:49;2.92;;;2.20;;
62574;SDS011;53112;45.602;11.904;2023-04-24T10:20:20;5.30;;;2.50;;
62574;SDS011;53112;45.602;11.904;2023-04-24T10:22:48;4.72;;;2.40;;
62574;SDS011;53112;45.602;11.904;2023-04-24T10:25:19;4.03;;;2.40;;
62574;SDS011;53112;45.602;11.904;2023-04-24T10:27:47;5.15;;;2.38;;
62574;SDS011;53112;45.602;11.904;2023-04-24T10:30:15;5.70;;;2.45;;
62574;SDS011;53112;45.602;11.904;2023-04-24T10:32:41;5.70;;;2.70;;
62574;SDS011;53112;45.602;11.904;2023-04-24T10:35:08;6.45;;;2.47;;
62574;SDS011;53112;45.602;11.904;2023-04-24T10:37:35;3.90;;;2.38;;
62574;SDS011;53112;45.602;11.904;2023-04-24T10:40:03;5.97;;;2.45;;
62574;SDS011;53112;45.602;11.904;2023-04-24T10:42:30;4.68;;;2.50;;
62574;SDS011;53112;45.602;11.904;2023-04-24T10:44:59;3.17;;;2.08;;
62574;SDS011;53112;45.602;11.904;2023-04-24T10:47:29;5.05;;;2.30;;
62574;SDS011;53112;45.602;11.904;2023-04-24T10:50:09;3.78;;;2.20;;
62574;SDS011;53112;45.602;11.904;2023-04-24T10:52:48;5.93;;;2.45;;
62574;SDS011;53112;45.602;11.904;2023-04-24T11:00:38;4.03;;;2.10;;
62574;SDS011;53112;45.602;11.904;2023-04-24T11:03:06;4.78;;;2.30;;
62574;SDS011;53112;45.602;11.904;2023-04-24T11:05:49;4.57;;;2.33;;
62574;SDS011;53112;45.602;11.904;2023-04-24T11:08:22;3.88;;;2.10;;
62574;SDS011;53112;45.602;11.904;2023-04-24T11:10:57;3.22;;;2.15;;
62574;SDS011;53112;45.602;11.904;2023-04-24T11:13:27;5.53;;;2.50;;
62574;SDS011;53112;45.602;11.904;2023-04-24T11:16:26;3.95;;;2.20;;
62574;SDS011;53112;45.602;11.904;2023-04-24T11:19:01;5.07;;;2.30;;
62574;SDS011;53112;45.602;11.904;2023-04-24T11:24:25;5.32;;;2.58;;
62574;SDS011;53112;45.602;11.904;2023-04-24T11:26:53;3.78;;;2.17;;
62574;SDS011;53112;45.602;11.904;2023-04-24T11:30:09;4.70;;;2.40;;
62574;SDS011;53112;45.602;11.904;2023-04-24T11:35:00;4.28;;;2.28;;
62574;SDS011;53112;45.602;11.904;2023-04-24T11:37:47;4.60;;;2.50;;
62574;SDS011;53112;45.602;11.904;2023-04-24T11:40:15;3.72;;;2.03;;
62574;SDS011;53112;45.602;11.904;2023-04-24T11:42:43;4.75;;;2.00;;
62574;SDS011;53112;45.602;11.904;2023-04-24T11:45:10;4.45;;;2.08;;
62574;SDS011;53112;45.602;11.904;2023-04-24T11:47:41;4.63;;;2.20;;
62574;SDS011;53112;45.602;11.904;2023-04-24T11:50:08;4.05;;;2.05;;
62574;SDS011;53112;45.602;11.904;2023-04-24T11:52:37;5.00;;;2.10;;
62574;SDS011;53112;45.602;11.904;2023-04-24T11:55:22;5.47;;;2.17;;
62574;SDS011;53112;45.602;11.904;2023-04-24T11:57:49;4.18;;;2.10;;
62574;SDS011;53112;45.602;11.904;2023-04-24T12:00:21;3.65;;;1.85;;
62574;SDS011;53112;45.602;11.904;2023-04-24T12:08:29;5.05;;;2.30;;
62574;SDS011;53112;45.602;11.904;2023-04-24T12:10:55;4.38;;;2.10;;
62574;SDS011;53112;45.602;11.904;2023-04-24T12:13:21;3.92;;;2.20;;
62574;SDS011;53112;45.602;11.904;2023-04-24T12:15:47;3.78;;;2.20;;
62574;SDS011;53112;45.602;11.904;2023-04-24T12:18:13;3.88;;;2.00;;
62574;SDS011;53112;45.602;11.904;2023-04-24T12:20:40;3.65;;;1.98;;
62574;SDS011;53112;45.602;11.904;2023-04-24T12:23:06;3.63;;;2.00;;
62574;SDS011;53112;45.602;11.904;2023-04-24T12:25:32;3.65;;;1.92;;
62574;SDS011;53112;45.602;11.904;2023-04-24T12:30:28;3.92;;;1.90;;
62574;SDS011;53112;45.602;11.904;2023-04-24T12:32:57;3.13;;;2.00;;
62574;SDS011;53112;45.602;11.904;2023-04-24T12:35:26;3.70;;;2.00;;
62574;SDS011;53112;45.602;11.904;2023-04-24T12:37:53;3.55;;;1.90;;
62574;SDS011;53112;45.602;11.904;2023-04-24T12:40:25;3.13;;;1.92;;
62574;SDS011;53112;45.602;11.904;2023-04-24T12:42:51;6.13;;;2.05;;
62574;SDS011;53112;45.602;11.904;2023-04-24T12:45:18;3.42;;;1.90;;
62574;SDS011;53112;45.602;11.904;2023-04-24T12:47:45;4.25;;;2.35;;
62574;SDS011;53112;45.602;11.904;2023-04-24T12:50:15;4.40;;;2.00;;
62574;SDS011;53112;45.602;11.904;2023-04-24T12:52:41;3.25;;;1.88;;
62574;SDS011;53112;45.602;11.904;2023-04-24T12:55:08;3.92;;;2.10;;
62574;SDS011;53112;45.602;11.904;2023-04-24T12:57:35;3.85;;;2.08;;
62574;SDS011;53112;45.602;11.904;2023-04-24T13:00:03;3.47;;;1.83;;
62574;SDS011;53112;45.602;11.904;2023-04-24T13:02:31;3.30;;;1.83;;
62574;SDS011;53112;45.602;11.904;2023-04-24T13:04:58;3.45;;;1.90;;
62574;SDS011;53112;45.602;11.904;2023-04-24T13:07:24;2.78;;;1.83;;
62574;SDS011;53112;45.602;11.904;2023-04-24T13:09:51;3.33;;;1.88;;
62574;SDS011;53112;45.602;11.904;2023-04-24T13:12:17;3.92;;;1.80;;
62574;SDS011;53112;45.602;11.904;2023-04-24T13:14:43;3.55;;;2.13;;
62574;SDS011;53112;45.602;11.904;2023-04-24T13:17:11;3.90;;;2.15;;
62574;SDS011;53112;45.602;11.904;2023-04-24T13:19:38;2.70;;;1.80;;
62574;SDS011;53112;45.602;11.904;2023-04-24T13:22:06;4.95;;;2.08;;
62574;SDS011;53112;45.602;11.904;2023-04-24T13:24:33;3.15;;;1.90;;
62574;SDS011;53112;45.602;11.904;2023-04-24T13:27:00;3.42;;;2.03;;
62574;SDS011;53112;45.602;11.904;2023-04-24T13:29:27;3.50;;;1.98;;
62574;SDS011;53112;45.602;11.904;2023-04-24T13:31:54;3.67;;;1.80;;
62574;SDS011;53112;45.602;11.904;2023-04-24T13:34:21;4.28;;;2.03;;
62574;SDS011;53112;45.602;11.904;2023-04-24T13:36:50;2.80;;;1.80;;
62574;SDS011;53112;45.602;11.904;2023-04-24T13:39:20;3.33;;;1.90;;
62574;SDS011;53112;45.602;11.904;2023-04-24T13:41:47;3.58;;;1.83;;
62574;SDS011;53112;45.602;11.904;2023-04-24T13:44:14;3.78;;;1.95;;
62574;SDS011;53112;45.602;11.904;2023-04-24T13:46:41;3.47;;;1.95;;
62574;SDS011;53112;45.602;11.904;2023-04-24T13:49:09;4.35;;;2.78;;
62574;SDS011;53112;45.602;11.904;2023-04-24T13:51:36;8.10;;;4.38;;
62574;SDS011;53112;45.602;11.904;2023-04-24T13:54:03;8.70;;;4.35;;
62574;SDS011;53112;45.602;11.904;2023-04-24T13:56:29;7.00;;;3.90;;
62574;SDS011;53112;45.602;11.904;2023-04-24T13:58:55;8.57;;;4.15;;
62574;SDS011;53112;45.602;11.904;2023-04-24T14:01:22;9.23;;;4.50;;
62574;SDS011;53112;45.602;11.904;2023-04-24T14:03:51;8.70;;;3.90;;
62574;SDS011;53112;45.602;11.904;2023-04-24T14:06:20;8.40;;;3.80;;
62574;SDS011;53112;45.602;11.904;2023-04-24T14:08:46;7.93;;;3.90;;
62574;SDS011;53112;45.602;11.904;2023-04-24T14:11:13;7.35;;;3.50;;
62574;SDS011;53112;45.602;11.904;2023-04-24T14:13:40;6.60;;;3.35;;
62574;SDS011;53112;45.602;11.904;2023-04-24T14:16:07;6.63;;;3.10;;
62574;SDS011;53112;45.602;11.904;2023-04-24T14:18:33;6.22;;;2.97;;
62574;SDS011;53112;45.602;11.904;2023-04-24T14:20:59;7.68;;;3.20;;
62574;SDS011;53112;45.602;11.904;2023-04-24T14:23:26;6.20;;;2.88;;
62574;SDS011;53112;45.602;11.904;2023-04-24T14:25:52;6.85;;;3.08;;
62574;SDS011;53112;45.602;11.904;2023-04-24T14:28:21;5.47;;;2.80;;
62574;SDS011;53112;45.602;11.904;2023-04-24T14:30:47;5.47;;;2.40;;
62574;SDS011;53112;45.602;11.904;2023-04-24T14:33:13;5.70;;;2.85;;
62574;SDS011;53112;45.602;11.904;2023-04-24T14:35:40;5.93;;;2.40;;
62574;SDS011;53112;45.602;11.904;2023-04-24T14:38:07;5.10;;;2.50;;
62574;SDS011;53112;45.602;11.904;2023-04-24T14:40:34;3.83;;;2.10;;
62574;SDS011;53112;45.602;11.904;2023-04-24T14:43:00;4.40;;;2.40;;
62574;SDS011;53112;45.602;11.904;2023-04-24T14:45:26;4.82;;;2.40;;
62574;SDS011;53112;45.602;11.904;2023-04-24T14:47:53;4.25;;;2.13;;
62574;SDS011;53112;45.602;11.904;2023-04-24T14:50:19;3.85;;;2.30;;
62574;SDS011;53112;45.602;11.904;2023-04-24T14:52:45;3.78;;;2.30;;
62574;SDS011;53112;45.602;11.904;2023-04-24T14:55:12;3.78;;;2.03;;